Time;durP1;ratioP1;P1;durP2;ratioP2;P2;SDS_P1;SDS_P2;PMS_P1;PMS_P2;Temp;Humidity;BMP_temperature;BMP_pressure;BME280_temperature;BME280_humidity;BME280_pressure;Samples;Min_cycle;Max_cycle;Signal;HPM_P1;HPM_P2
2022/03/18 00:02:27;;;;;;;15.63;3.53;;;0.00;99.90;;;;;;5077365;28;20021;-75
2022/03/18 00:04:54;;;;;;;9.15;2.97;;;0.00;99.90;;;;;;5078101;28;20054;-75
2022/03/18 00:07:22;;;;;;;9.45;3.17;;;0.00;99.90;;;;;;5078036;28;20430;-75
2022/03/18 00:09:50;;;;;;;11.18;3.53;;;-0.10;99.90;;;;;;5077984;28;20024;-75
2022/03/18 00:12:18;;;;;;;6.68;2.95;;;-0.10;99.90;;;;;;5060742;28;20063;-75
2022/03/18 00:14:45;;;;;;;;;;;-0.10;99.90;;;;;;5079266;28;20028;-75
2022/03/18 00:17:12;;;;;;;;;;;-0.10;99.90;;;;;;5079184;28;19912;-75
2022/03/18 00:19:40;;;;;;;;;;;-0.20;99.90;;;;;;5061450;28;19908;-75
2022/03/18 00:22:07;;;;;;;;;;;-0.20;99.90;;;;;;5078209;28;19923;-75
2022/03/18 00:24:34;;;;;;;;;;;-0.20;99.90;;;;;;5061301;28;19904;-75
2022/03/18 00:27:03;;;;;;;;;;;-0.20;99.90;;;;;;5079459;28;19967;-75
2022/03/18 00:29:31;;;;;;;;;;;-0.30;99.90;;;;;;5078979;28;19940;-75
2022/03/18 00:31:58;;;;;;;;;;;-0.30;99.90;;;;;;5060485;28;19904;-75
2022/03/18 00:34:25;;;;;;;;;;;-0.30;99.90;;;;;;5078169;28;20317;-75
2022/03/18 00:36:53;;;;;;;;;;;-0.30;99.90;;;;;;5078319;28;19911;-75
2022/03/18 00:39:20;;;;;;;;;;;-0.30;99.90;;;;;;5078033;28;20006;-75
2022/03/18 00:41:47;;;;;;;;;;;-0.30;99.90;;;;;;5078093;28;19904;-75
2022/03/18 00:44:14;;;;;;;;;;;-0.30;99.90;;;;;;5078011;28;20004;-75
2022/03/18 00:46:42;;;;;;;;;;;-0.30;99.90;;;;;;5077821;28;19998;-75
2022/03/18 00:52:06;;;;;;;;;;;-0.40;99.90;;;;;;5077951;28;20331;-75
2022/03/18 00:54:34;;;;;;;;;;;-0.40;99.90;;;;;;5078433;28;19904;-75
2022/03/18 00:57:01;;;;;;;;;;;-0.40;99.90;;;;;;5060924;28;19905;-75
2022/03/18 00:59:28;;;;;;;;;;;-0.40;99.90;;;;;;5078649;28;20316;-75
2022/03/18 01:01:56;;;;;;;;;;;-0.50;99.90;;;;;;5078358;28;19905;-75
2022/03/18 01:04:23;;;;;;;;;;;-0.50;99.90;;;;;;5078829;28;19905;-75
2022/03/18 01:06:50;;;;;;;;;;;-0.50;99.90;;;;;;5060674;28;20223;-75
2022/03/18 01:09:18;;;;;;;;;;;-0.50;99.90;;;;;;5078181;28;19934;-75
2022/03/18 01:11:45;;;;;;;;;;;-0.60;99.90;;;;;;5078516;28;19914;-75
2022/03/18 01:14:12;;;;;;;;;;;-0.60;99.90;;;;;;5076711;28;20213;-75
2022/03/18 01:16:39;;;;;;;;;;;-0.60;99.90;;;;;;5077375;28;19904;-75
2022/03/18 01:19:06;;;;;;;;;;;-0.70;99.90;;;;;;5077087;28;20207;-75
2022/03/18 01:21:33;;;;;;;;;;;-0.70;99.90;;;;;;5077348;28;19904;-75
2022/03/18 01:24:01;;;;;;;;;;;-0.70;99.90;;;;;;5077415;28;19934;-75
2022/03/18 01:26:29;;;;;;;;;;;-0.70;99.90;;;;;;5077248;28;20274;-75
2022/03/18 01:28:56;;;;;;;;;;;-0.70;99.90;;;;;;5059298;28;20216;-75
2022/03/18 01:31:23;;;;;;;;;;;-0.70;99.90;;;;;;5076978;28;19905;-75
2022/03/18 01:33:50;;;;;;;;;;;-0.70;99.90;;;;;;5077289;28;19908;-75
2022/03/18 01:36:17;;;;;;;;;;;-0.70;99.90;;;;;;5077654;28;20301;-75
2022/03/18 01:38:44;;;;;;;;;;;-0.70;99.90;;;;;;5078343;28;19918;-75
2022/03/18 01:41:11;;;;;;;;;;;-0.70;99.90;;;;;;5078146;28;19905;-75
2022/03/18 01:43:41;;;;;;;;;;;-0.70;99.90;;;;;;5078078;28;20279;-75
2022/03/18 01:46:08;;;;;;;;;;;-0.70;99.90;;;;;;5078233;28;19950;-75
2022/03/18 01:48:35;;;;;;;;;;;-0.80;99.90;;;;;;5077713;28;20262;-75
2022/03/18 01:51:07;;;;;;;;;;;-0.80;99.90;;;;;;5059950;28;19908;-75
2022/03/18 01:53:38;;;;;;;;;;;-0.80;99.90;;;;;;5078056;28;20358;-75
2022/03/18 01:56:05;;;;;;;;;;;-0.80;99.90;;;;;;5059887;28;20227;-75
2022/03/18 01:58:33;;;;;;;;;;;-0.80;99.90;;;;;;5058882;28;19908;-75
2022/03/18 02:01:00;;;;;;;;;;;-0.90;99.90;;;;;;5076772;28;19995;-75
2022/03/18 02:03:27;;;;;;;;;;;-0.90;99.90;;;;;;5076675;28;19904;-75
2022/03/18 02:05:54;;;;;;;;;;;-0.90;99.90;;;;;;5059349;28;20315;-75
2022/03/18 02:08:21;;;;;;;;;;;-0.90;99.90;;;;;;5076920;28;20065;-75
2022/03/18 02:10:48;;;;;;;;;;;-1.00;99.90;;;;;;5076683;28;19911;-75
2022/03/18 02:13:15;;;;;;;;;;;-1.00;99.90;;;;;;5077167;28;19908;-75
2022/03/18 02:15:42;;;;;;;;;;;-1.00;99.90;;;;;;5058994;28;19908;-75
2022/03/18 02:18:09;;;;;;;;;;;-1.00;99.90;;;;;;5059448;28;19908;-76
2022/03/18 02:20:36;;;;;;;;;;;-1.00;99.90;;;;;;5077666;28;20311;-75
2022/03/18 02:23:03;;;;;;;;;;;-1.00;99.90;;;;;;5077366;28;19944;-75
2022/03/18 02:25:30;;;;;;;;;;;-1.10;99.90;;;;;;5061230;28;19954;-75
2022/03/18 02:27:58;;;;;;;;;;;-1.10;99.90;;;;;;5081577;28;19971;-75
2022/03/18 02:30:28;;;;;;;;;;;-1.10;99.90;;;;;;5063227;28;20293;-75
2022/03/18 02:32:55;;;;;;;;;;;-1.10;99.90;;;;;;5081082;28;19912;-75
2022/03/18 02:35:22;;;;;;;;;;;-1.20;99.90;;;;;;5081606;28;19908;-75
2022/03/18 02:37:49;;;;;;;;;;;-1.20;99.90;;;;;;5063529;28;19958;-75
2022/03/18 02:40:16;;;;;;;;;;;-1.20;99.90;;;;;;5080656;28;20242;-75
2022/03/18 02:42:44;;;;;;;;;;;-1.20;99.90;;;;;;5080699;28;20207;-75
2022/03/18 02:45:11;;;;;;;;;;;-1.20;99.90;;;;;;5079980;28;19940;-75
2022/03/18 02:47:38;;;;;;;;;;;-1.20;99.90;;;;;;5080095;28;19908;-76
2022/03/18 02:50:06;;;;;;;;;;;-1.20;99.90;;;;;;5080212;28;19908;-75
2022/03/18 02:52:34;;;;;;;;;;;-1.20;99.90;;;;;;5062213;28;19904;-75
2022/03/18 02:55:01;;;;;;;;;;;-1.30;99.90;;;;;;5079822;28;20367;-76
2022/03/18 02:57:27;;;;;;;;;;;-1.30;99.90;;;;;;5062181;28;19951;-75
2022/03/18 02:59:54;;;;;;;;;;;-1.30;99.90;;;;;;5079787;28;19905;-75
2022/03/18 03:02:21;;;;;;;;;;;-1.30;99.90;;;;;;5080594;28;20022;-75
2022/03/18 03:10:21;;;;;;;;;;;-1.30;99.90;;;;;;5080545;28;19911;-75
2022/03/18 03:12:49;;;;;;;;;;;-1.40;99.90;;;;;;5080704;28;20315;-75
2022/03/18 03:15:17;;;;;;;;;;;-1.40;99.90;;;;;;5080968;28;20200;-75
2022/03/18 03:17:44;;;;;;;;;;;-1.40;99.90;;;;;;5062611;28;19908;-75
2022/03/18 03:20:11;;;;;;;;;;;-1.40;99.90;;;;;;5062590;28;19947;-75
2022/03/18 03:22:38;;;;;;;;;;;-1.40;99.90;;;;;;5079789;28;19916;-75
2022/03/18 03:25:06;;;;;;;;;;;-1.40;99.90;;;;;;5079599;28;19909;-76
2022/03/18 03:27:33;;;;;;;;;;;-1.40;99.90;;;;;;5079858;28;20301;-75
2022/03/18 03:30:06;;;;;;;;;;;-1.40;99.90;;;;;;5061404;28;19908;-75
2022/03/18 03:32:32;;;;;;;;;;;-1.40;99.90;;;;;;5079327;28;19908;-76
2022/03/18 03:34:59;;;;;;;;;;;-1.40;99.90;;;;;;5061346;28;19958;-75
2022/03/18 03:37:27;;;;;;;;;;;-1.40;99.90;;;;;;5078492;28;20281;-75
2022/03/18 03:39:54;;;;;;;;;;;-1.40;99.90;;;;;;5061226;28;19904;-75
2022/03/18 03:42:21;;;;;;;;;;;-1.50;99.90;;;;;;5061399;28;19904;-75
2022/03/18 03:44:48;;;;;;;;;;;-1.50;99.90;;;;;;5061432;28;19911;-76
2022/03/18 03:47:16;;;;;;;;;;;-1.50;99.90;;;;;;5062006;28;19909;-75
2022/03/18 03:49:44;;;;;;;;;;;-1.50;99.90;;;;;;5079804;28;19991;-75
2022/03/18 03:52:11;;;;;;;;;;;-1.50;99.90;;;;;;5079879;28;19910;-75
2022/03/18 03:54:37;;;;;;;;;;;-1.50;99.90;;;;;;5079697;28;19905;-75
2022/03/18 03:57:05;;;;;;;;;;;-1.60;99.90;;;;;;5079947;28;19904;-75
2022/03/18 03:59:32;;;;;;;;;;;-1.60;99.90;;;;;;5079810;28;19908;-75
2022/03/18 04:01:59;;;;;;;;;;;-1.60;99.90;;;;;;5061863;28;19904;-75
2022/03/18 04:04:26;;;;;;;;;;;-1.60;99.90;;;;;;5079378;28;19978;-76
2022/03/18 04:06:54;;;;;;;;;;;-1.70;99.90;;;;;;5078539;28;19904;-75
2022/03/18 04:09:21;;;;;;;;;;;-1.70;99.90;;;;;;5078718;28;19911;-76
2022/03/18 04:11:48;;;;;;;;;;;-1.70;99.90;;;;;;5078854;28;19911;-76
2022/03/18 04:14:15;;;;;;;;;;;-1.70;99.90;;;;;;5078335;28;20012;-76
2022/03/18 04:16:44;;;;;;;;;;;-1.80;99.90;;;;;;5060583;28;19904;-75
2022/03/18 04:19:13;;;;;;;;;;;-1.80;99.90;;;;;;5060256;28;19915;-76
2022/03/18 04:21:41;;;;;;;;;;;-1.80;99.90;;;;;;5060715;28;20296;-76
2022/03/18 04:24:08;;;;;;;;;;;-1.80;99.90;;;;;;5078152;28;19905;-76
2022/03/18 04:26:35;;;;;;;;;;;-1.80;99.90;;;;;;5078419;28;19915;-76
2022/03/18 04:29:03;;;;;;;;;;;-1.90;99.90;;;;;;5061125;28;19996;-75
2022/03/18 04:31:30;;;;;;;;;;;-1.80;99.90;;;;;;5079572;28;19905;-75
2022/03/18 04:33:57;;;;;;;;;;;-1.90;99.90;;;;;;5078915;28;19927;-75
2022/03/18 04:36:23;;;;;;;;;;;-1.90;99.90;;;;;;5061102;28;19911;-75
2022/03/18 04:38:51;;;;;;;;;;;-1.90;99.90;;;;;;5079041;28;19908;-76
2022/03/18 04:41:17;;;;;;;;;;;-1.90;99.90;;;;;;5078726;28;19911;-75
2022/03/18 04:43:44;;;;;;;;;;;-1.90;99.90;;;;;;5078747;28;20220;-75
2022/03/18 04:46:11;;;;;;;;;;;-2.00;99.90;;;;;;5061163;28;20255;-76
2022/03/18 04:48:38;;;;;;;;;;;-2.00;99.90;;;;;;5077701;28;19927;-76
2022/03/18 04:51:06;;;;;;;;;;;-2.00;99.90;;;;;;5077649;28;19942;-76
2022/03/18 04:53:33;;;;;;;;;;;-2.10;99.90;;;;;;5059831;28;20323;-76
2022/03/18 04:56:00;;;;;;;;;;;-2.10;99.90;;;;;;5077711;28;19950;-75
2022/03/18 04:58:27;;;;;;;;;;;-2.10;99.90;;;;;;5077718;28;19909;-75
2022/03/18 05:00:54;;;;;;;;;;;-2.10;99.90;;;;;;5077731;28;19932;-75
2022/03/18 05:03:22;;;;;;;;;;;-2.10;99.90;;;;;;5059655;28;19904;-76
2022/03/18 05:05:49;;;;;;;;;;;-2.10;99.90;;;;;;5077565;28;19904;-75
2022/03/18 05:08:16;;;;;;;;;;;-2.10;99.90;;;;;;5077316;28;20308;-75
2022/03/18 05:10:43;;;;;;;;;;;-2.10;99.90;;;;;;5078257;28;19905;-75
2022/03/18 05:13:10;;;;;;;;;;;-2.10;99.90;;;;;;5078476;28;19904;-75
2022/03/18 05:15:38;;;;;;;;;;;-2.20;99.90;;;;;;5078605;28;19947;-75
2022/03/18 05:18:05;;;;;;;;;;;-2.20;99.90;;;;;;5078551;28;20300;-75
2022/03/18 05:20:32;;;;;;;;;;;-2.20;99.90;;;;;;5078174;28;19904;-75
2022/03/18 05:22:59;;;;;;;;;;;-2.30;99.90;;;;;;5078115;28;19923;-75
2022/03/18 05:25:27;;;;;;;;;;;-2.30;99.90;;;;;;5060315;28;19957;-75
2022/03/18 05:27:54;;;;;;;;;;;-2.30;99.90;;;;;;5078295;28;20268;-75
2022/03/18 05:30:21;;;;;;;;;;;-2.30;99.90;;;;;;5059566;28;20003;-75
2022/03/18 05:32:48;;;;;;;;;;;-2.30;99.90;;;;;;5077246;28;19904;-75
2022/03/18 05:35:18;;;;;;;;;;;-2.30;99.90;;;;;;5077297;28;19908;-75
2022/03/18 05:37:46;;;;;;;;;;;-2.20;99.90;;;;;;5077190;28;19961;-75
2022/03/18 05:40:17;;;;;;;;;;;-2.20;99.90;;;;;;5076963;28;19936;-75
2022/03/18 05:42:46;;;;;;;;;;;-2.20;99.90;;;;;;5058997;28;19908;-75
2022/03/18 05:45:14;;;;;;;;;;;-2.20;99.90;;;;;;5077167;28;19950;-75
2022/03/18 05:47:42;;;;;;;;;;;-2.20;99.90;;;;;;5077399;28;19911;-75
2022/03/18 05:50:15;;;;;;;;;;;-2.30;99.90;;;;;;5076838;28;20288;-75
2022/03/18 05:52:46;;;;;;;;;;;-2.30;99.90;;;;;;5077431;28;19904;-75
2022/03/18 05:55:13;;;;;;;;;;;-2.30;99.90;;;;;;5059888;28;19954;-75
2022/03/18 05:57:40;;;;;;;;;;;-2.30;99.90;;;;;;5077880;28;20297;-75
2022/03/18 06:00:07;;;;;;;;;;;-2.20;99.90;;;;;;5060853;28;19904;-75
2022/03/18 06:02:34;;;;;;;;;;;-2.20;99.90;;;;;;5081788;28;19904;-75
2022/03/18 06:05:01;;;;;;;;;;;-2.20;99.90;;;;;;5064196;28;20316;-75
2022/03/18 06:07:28;;;;;;;;;;;-2.20;99.90;;;;;;5081888;28;19912;-75
2022/03/18 06:12:40;;;;;;;;;;;-2.20;99.90;;;;;;5080743;28;19927;-75
2022/03/18 06:15:07;;;;;;;;;;;-2.20;99.90;;;;;;5080948;28;19905;-75
2022/03/18 06:17:34;;;;;;;;;;;-2.10;99.90;;;;;;5080671;28;19908;-75
2022/03/18 06:20:01;;;;;;;;;;;-2.10;99.90;;;;;;5080797;28;20362;-79
2022/03/18 06:22:29;;;;;;;;;;;-2.20;99.90;;;;;;5078398;28;19916;-75
2022/03/18 06:24:58;;;;;;;;;;;-2.20;99.90;;;;;;5100996;28;19947;-75
2022/03/18 06:27:25;;;;;;;;;;;-2.20;99.90;;;;;;5099801;28;19962;-75
2022/03/18 06:29:52;;;;;;;;;;;-2.10;99.90;;;;;;5099579;28;19904;-75
2022/03/18 06:32:19;;;;;;;;;;;-2.10;99.90;;;;;;5100556;28;19904;-75
2022/03/18 06:34:46;;;;;;;;;;;-2.10;99.90;;;;;;5101726;28;19903;-75
2022/03/18 06:37:14;;;;;;;;;;;-2.00;99.90;;;;;;5100648;28;19908;-77
2022/03/18 06:39:41;;;;;;;;;;;-1.90;99.90;;;;;;5100375;28;19908;-72
2022/03/18 06:42:09;;;;;;;;;;;-1.80;99.90;;;;;;5101920;28;20391;-82
2022/03/18 06:44:35;;;;;;;;;;;-1.70;99.90;;;;;;5101445;28;19995;-77
2022/03/18 06:47:03;;;;;;;;;;;-1.60;99.90;;;;;;5100245;28;19904;-78
2022/03/18 06:49:30;;;;;;;;;;;-1.60;99.90;;;;;;5100381;28;19904;-78
2022/03/18 06:51:59;;;;;;;;;;;-1.60;99.90;;;;;;5101234;28;19911;-77
2022/03/18 06:54:26;;;;;;;;;;;-1.50;99.90;;;;;;5100823;28;19904;-84
2022/03/18 06:56:53;;;;;;;;;;;-1.50;99.90;;;;;;5099260;28;19904;-75
2022/03/18 06:59:20;;;;;;;;;;;-1.50;99.90;;;;;;5100316;28;19907;-72
2022/03/18 07:01:47;;;;;;;;;;;-1.40;99.90;;;;;;5100609;28;19904;-74
2022/03/18 07:04:14;;;;;;;;;;;-1.40;99.90;;;;;;5100582;28;19911;-75
2022/03/18 07:06:42;;;;;;;;;;;-1.30;99.90;;;;;;5100466;28;19904;-73
2022/03/18 07:09:09;;;;;;;;;;;-1.30;99.90;;;;;;5100203;28;19904;-73
2022/03/18 07:11:36;;;;;;;;;;;-1.20;99.90;;;;;;5098729;28;20363;-73
2022/03/18 07:14:03;;;;;;;;;;;-1.10;99.90;;;;;;5100091;28;19908;-73
2022/03/18 07:19:15;;;;;;;;;;;-0.90;99.90;;;;;;5100608;28;20220;-72
2022/03/18 07:21:42;;;;;;;;;;;-0.80;99.90;;;;;;5097641;28;19981;-72
2022/03/18 07:24:09;;;;;;;;;;;-0.70;99.90;;;;;;5080561;28;19915;-73
2022/03/18 07:26:37;;;;;;;;;;;-0.60;99.90;;;;;;5080430;28;20003;-73
2022/03/18 07:29:05;;;;;;;;;;;-0.50;99.90;;;;;;5062436;28;19909;-73
2022/03/18 07:31:32;;;;;;;;;;;-0.40;99.90;;;;;;5080098;28;20250;-78
2022/03/18 07:33:59;;;;;;;;;;;-0.40;99.90;;;;;;5080033;28;20297;-73
2022/03/18 07:36:26;;;;;;;;;;;-0.30;99.90;;;;;;5062358;28;19912;-71
2022/03/18 07:38:53;;;;;;;;;;;-0.20;99.90;;;;;;5079600;28;19908;-71
2022/03/18 07:41:20;;;;;;;;;;;-0.10;99.90;;;;;;5079416;28;19963;-88
2022/03/18 07:43:47;;;;;;;;;;;0.00;99.90;;;;;;5079273;28;19943;-73
2022/03/18 07:46:14;;;;;;;;;;;0.10;99.90;;;;;;5079683;28;19966;-73
2022/03/18 07:48:44;;;;;;;;;;;0.20;99.90;;;;;;5078869;28;19911;-73
2022/03/18 07:51:12;;;;;;;;;;;0.30;99.90;;;;;;5078827;28;19904;-84
2022/03/18 07:53:39;;;;;;;;;;;0.40;99.90;;;;;;5079084;28;19931;-87
2022/03/18 07:56:06;;;;;;;;;;;0.50;99.90;;;;;;5061337;28;19950;-74
2022/03/18 07:58:33;;;;;;;;;;;0.50;99.90;;;;;;5079183;28;19908;-74
2022/03/18 08:01:01;;;;;;;;;;;0.60;99.90;;;;;;5061784;28;19908;-75
2022/03/18 08:03:28;;;;;;;;;;;0.70;99.90;;;;;;5079576;28;19904;-75
2022/03/18 08:05:55;;;;;;;;;;;0.80;99.90;;;;;;5079644;28;19958;-75
2022/03/18 08:08:22;;;;;;;;;;;0.90;99.90;;;;;;5079417;28;19912;-79
2022/03/18 08:10:50;;;;;;;;;;;1.00;99.90;;;;;;5061579;28;19954;-79
2022/03/18 08:13:17;;;;;;;;;;;1.10;99.90;;;;;;5060220;28;19904;-79
2022/03/18 08:15:44;;;;;;;;;;;1.10;99.90;;;;;;5079340;28;19905;-80
2022/03/18 08:18:11;;;;;;;;;;;1.20;99.90;;;;;;5079067;28;19908;-78
2022/03/18 08:20:42;;;;;;;;;;;1.30;99.90;;;;;;5078576;28;20304;-78
2022/03/18 08:23:09;;;;;;;;;;;1.40;99.90;;;;;;5086253;28;20388;-78
2022/03/18 08:25:36;;;;;;;;;;;1.60;99.90;;;;;;5098761;28;20292;-75
2022/03/18 08:28:05;;;;;;;;;;;1.70;99.90;;;;;;5099015;28;19927;-74
2022/03/18 08:30:32;;;;;;;;;;;1.90;99.90;;;;;;5098761;28;19910;-72
2022/03/18 08:32:59;;;;;;;;;;;2.00;99.90;;;;;;5098296;28;20249;-77
2022/03/18 08:35:26;;;;;;;;;;;2.10;99.90;;;;;;5097461;28;19911;-78
2022/03/18 08:37:59;;;;;;;;;;;2.20;99.90;;;;;;5098142;28;19950;-78
2022/03/18 08:40:32;;;;;;;;;;;2.40;99.90;;;;;;5098246;28;20307;-78
2022/03/18 08:42:59;;;;;;;;;;;2.50;99.90;;;;;;5099232;28;19904;-78
2022/03/18 08:45:26;;;;;;;;;;;2.60;99.90;;;;;;5098938;28;19904;-74
2022/03/18 08:47:54;;;;;;;;;;;2.70;99.90;;;;;;5099380;28;20288;-76
2022/03/18 08:50:21;;;;;;;;;;;2.80;99.90;;;;;;5097934;28;19944;-79
2022/03/18 08:52:49;;;;;;;;;;;2.90;99.90;;;;;;5098329;28;19911;-80
2022/03/18 08:55:17;;;;;;;;;;;3.00;99.90;;;;;;5096827;28;19904;-79
2022/03/18 08:57:44;;;;;;;;;;;3.20;99.90;;;;;;5097615;28;20001;-78
2022/03/18 09:00:14;;;;;;;;;;;3.30;99.90;;;;;;5097555;28;19904;-79
2022/03/18 09:02:42;;;;;;;;;;;3.40;99.90;;;;;;5097993;28;20373;-76
2022/03/18 09:05:09;;;;;;;;;;;3.50;99.90;;;;;;5096554;28;19904;-76
2022/03/18 09:07:36;;;;;;;;;;;3.70;99.90;;;;;;5098270;28;19957;-78
2022/03/18 09:10:04;;;;;;;;;;;3.80;99.90;;;;;;5096537;28;19965;-78
2022/03/18 09:12:31;;;;;;;15.30;4.13;;;3.90;99.90;;;;;;5095787;28;20427;-76
2022/03/18 09:14:59;;;;;;;14.18;3.58;;;4.00;99.90;;;;;;5097078;28;20028;-79
2022/03/18 09:17:27;;;;;;;14.60;3.67;;;4.10;99.90;;;;;;5096911;28;20032;-79
2022/03/18 09:19:54;;;;;;;14.73;3.47;;;4.20;99.90;;;;;;5097593;28;20024;-78
2022/03/18 09:22:22;;;;;;;13.93;4.50;;;4.30;99.90;;;;;;5089179;28;20444;-80
2022/03/18 09:24:49;;;;;;;20.80;4.68;;;4.40;99.90;;;;;;5077226;28;20032;-80
2022/03/18 09:27:16;;;;;;;14.18;3.70;;;4.50;99.90;;;;;;5077541;28;20413;-78
2022/03/18 09:29:44;;;;;;;10.05;3.25;;;4.60;99.90;;;;;;5077814;28;20024;-76
2022/03/18 09:32:11;;;;;;;14.27;4.00;;;4.80;99.90;;;;;;5059773;28;20021;-75
2022/03/18 09:34:38;;;;;;;11.77;3.47;;;4.80;99.90;;;;;;5076621;28;20024;-78
2022/03/18 09:37:06;;;;;;;6.65;2.45;;;4.90;99.90;;;;;;5059707;28;20102;-78
2022/03/18 09:39:34;;;;;;;10.30;2.40;;;5.00;99.90;;;;;;5077862;28;20024;-80
2022/03/18 09:42:02;;;;;;;10.45;2.92;;;5.10;99.90;;;;;;5059682;28;20021;-81
2022/03/18 09:44:40;;;;;;;11.00;2.88;;;5.10;99.90;;;;;;5058955;28;20052;-84
2022/03/18 09:47:09;;;;;;;12.50;3.10;;;5.20;99.90;;;;;;5058772;28;20029;-78
2022/03/18 09:49:36;;;;;;;9.75;2.60;;;5.30;99.90;;;;;;5076949;28;20028;-79
2022/03/18 09:52:05;;;;;;;8.93;2.33;;;5.40;99.90;;;;;;5058661;28;20020;-79
2022/03/18 09:54:34;;;;;;;6.55;2.20;;;5.50;99.90;;;;;;5076645;28;20025;-80
2022/03/18 09:57:02;;;;;;;16.70;3.45;;;5.50;99.90;;;;;;5076489;28;20028;-78
2022/03/18 09:59:30;;;;;;;13.75;3.05;;;5.60;99.90;;;;;;5058470;28;20020;-83
2022/03/18 10:02:33;;;;;;;14.43;2.78;;;5.70;99.90;;;;;;5076266;28;20420;-78
2022/03/18 10:05:06;;;;;;;8.65;1.85;;;5.70;99.90;;;;;;5076210;28;20025;-78
2022/03/18 10:07:34;;;;;;;24.85;3.47;;;5.80;99.90;;;;;;5059201;28;20082;-76
2022/03/18 10:10:16;;;;;;;7.93;2.17;;;5.90;99.90;;;;;;5077448;28;20078;-78
2022/03/18 10:12:45;;;;;;;7.55;2.20;;;5.90;99.90;;;;;;5077145;28;20016;-78
2022/03/18 10:15:19;;;;;;;13.30;2.47;;;6.00;99.90;;;;;;5077105;28;20025;-80
2022/03/18 10:17:59;;;;;;;9.02;1.60;;;6.10;99.90;;;;;;5077017;28;20021;-87
2022/03/18 10:20:26;;;;;;;7.75;1.58;;;6.20;99.90;;;;;;5059269;28;20070;-79
2022/03/18 10:22:56;;;;;;;9.68;2.05;;;6.30;99.90;;;;;;5077087;28;20128;-76
2022/03/18 10:25:38;;;;;;;7.93;1.58;;;6.30;99.90;;;;;;5059450;28;20112;-72
2022/03/18 10:28:07;;;;;;;8.57;1.90;;;6.40;99.90;;;;;;5076157;28;20481;-72
2022/03/18 10:30:35;;;;;;;6.60;1.52;;;6.50;99.90;;;;;;5076076;28;20035;-72
2022/03/18 10:33:03;;;;;;;6.53;2.00;;;6.60;99.90;;;;;;5076128;28;20028;-73
2022/03/18 10:38:35;;;;;;;13.43;2.30;;;6.70;99.90;;;;;;5075832;28;20028;-74
2022/03/18 10:41:25;;;;;;;9.60;2.20;;;6.80;99.90;;;;;;5075822;28;20020;-76
2022/03/18 10:43:56;;;;;;;7.20;2.22;;;7.00;99.90;;;;;;5075820;28;20021;-77
2022/03/18 10:46:23;;;;;;;14.48;2.33;;;7.10;99.90;;;;;;5059262;28;20105;-75
2022/03/18 10:49:04;;;;;;;10.63;2.42;;;7.20;99.90;;;;;;5079914;28;20020;-74
2022/03/18 10:51:34;;;;;;;7.82;2.40;;;7.20;99.90;;;;;;5080375;28;20021;-76
2022/03/18 10:54:01;;;;;;;9.10;2.45;;;7.30;99.90;;;;;;5080661;28;20485;-76
2022/03/18 10:56:29;;;;;;;8.98;2.33;;;7.30;99.90;;;;;;5062554;28;20024;-73
2022/03/18 10:58:56;;;;;;;5.03;2.00;;;7.40;99.90;;;;;;5080259;28;20424;-73
2022/03/18 11:01:24;;;;;;;6.22;1.83;;;7.50;99.90;;;;;;5080460;28;20515;-72
2022/03/18 11:03:52;;;;;;;7.40;2.72;;;7.50;99.90;;;;;;5080771;28;20099;-72
2022/03/18 11:06:20;;;;;;;10.50;2.50;;;7.60;99.90;;;;;;5080342;28;20024;-75
2022/03/18 11:08:48;;;;;;;13.80;2.72;;;7.60;99.90;;;;;;5079429;28;20047;-71
2022/03/18 11:11:22;;;;;;;9.57;2.90;;;7.70;99.90;;;;;;5079220;28;20032;-71
2022/03/18 11:14:13;;;;;;;8.35;2.10;;;7.70;99.90;;;;;;5079104;28;20078;-72
2022/03/18 11:16:47;;;;;;;8.18;2.00;;;7.70;99.90;;;;;;5079013;28;20036;-71
2022/03/18 11:19:14;;;;;;;5.63;2.55;;;7.80;99.90;;;;;;5078730;28;20032;-71
2022/03/18 11:21:42;;;;;;;15.30;3.05;;;7.90;99.90;;;;;;5079005;28;20021;-72
2022/03/18 11:24:22;;;;;;;8.32;2.65;;;8.00;99.90;;;;;;5078912;28;20409;-73
2022/03/18 11:26:52;;;;;;;8.98;2.40;;;8.10;99.90;;;;;;5079445;28;20070;-72
2022/03/18 11:29:24;;;;;;;9.13;2.88;;;8.10;99.90;;;;;;5061563;28;20059;-75
2022/03/18 11:32:10;;;;;;;11.70;2.63;;;8.20;99.90;;;;;;5079529;28;20147;-71
2022/03/18 11:34:47;;;;;;;10.13;4.10;;;8.30;99.90;;;;;;5080105;28;20424;-72
2022/03/18 11:37:14;;;;;;;9.02;3.38;;;8.30;99.90;;;;;;5080244;28;20059;-72
2022/03/18 11:39:42;;;;;;;9.75;2.40;;;8.40;99.90;;;;;;5061717;28;20028;-70
2022/03/18 11:42:10;;;;;;;12.85;3.47;;;8.40;99.90;;;;;;5079482;28;20023;-70
2022/03/18 11:44:39;;;;;;;6.30;2.22;;;8.40;99.90;;;;;;5079642;28;20020;-70
2022/03/18 11:47:31;;;;;;;9.55;2.50;;;8.50;99.90;;;;;;5079315;28;20084;-70
2022/03/18 11:50:00;;;;;;;14.38;2.63;;;8.70;99.90;;;;;;5061356;28;20045;-70
2022/03/18 11:52:28;;;;;;;11.38;2.30;;;8.80;99.90;;;;;;5078957;28;20024;-69
2022/03/18 11:55:01;;;;;;;9.95;2.70;;;8.80;99.90;;;;;;5078632;28;20081;-69
2022/03/18 11:57:33;;;;;;;8.50;2.72;;;9.00;99.90;;;;;;5059659;28;20060;-68
2022/03/18 12:00:05;;;;;;;10.00;2.55;;;9.00;99.90;;;;;;5078505;28;20070;-71
2022/03/18 12:02:35;;;;;;;11.45;3.70;;;9.10;99.90;;;;;;5078421;28;20046;-72
2022/03/18 12:05:05;;;;;;;9.20;2.58;;;9.20;99.90;;;;;;5078754;28;20104;-71
2022/03/18 12:07:48;;;;;;;7.28;2.58;;;9.20;99.90;;;;;;5078145;28;20067;-88
2022/03/18 12:10:33;;;;;;;7.93;2.00;;;9.20;99.90;;;;;;5078178;28;20544;-70
2022/03/18 12:13:05;;;;;;;9.75;2.22;;;9.30;99.90;;;;;;5078882;28;20100;-75
2022/03/18 12:15:37;;;;;;;10.25;2.47;;;9.40;99.90;;;;;;5078804;28;20017;-75
2022/03/18 12:18:06;;;;;;;7.95;2.88;;;9.40;99.90;;;;;;5078565;28;20025;-76
2022/03/18 12:20:36;;;;;;;8.25;2.72;;;9.50;99.90;;;;;;5061133;28;20028;-75
2022/03/18 12:23:06;;;;;;;6.45;2.10;;;9.60;99.90;;;;;;5084751;28;20491;-75
2022/03/18 12:25:34;;;;;;;7.88;2.33;;;9.60;99.90;;;;;;5099530;28;20462;-75
2022/03/18 12:28:01;;;;;;;6.78;2.47;;;9.70;99.90;;;;;;5098867;28;20437;-75
2022/03/18 12:30:29;;;;;;;6.47;2.60;;;9.70;99.90;;;;;;5099517;28;20028;-74
2022/03/18 12:33:08;;;;;;;8.02;1.88;;;9.80;99.90;;;;;;5097842;28;20047;-75
2022/03/18 12:35:38;;;;;;;11.23;2.38;;;9.80;99.90;;;;;;5097828;28;20415;-75
2022/03/18 12:38:19;;;;;;;7.30;2.17;;;9.90;99.90;;;;;;5096641;28;20432;-75
2022/03/18 12:40:59;;;;;;;10.52;2.30;;;9.90;99.90;;;;;;5097936;28;20436;-75
2022/03/18 12:43:30;;;;;;;7.72;2.42;;;10.00;99.90;;;;;;5097865;28;20019;-75
2022/03/18 12:45:58;;;;;;;6.55;2.17;;;10.10;99.90;;;;;;5097624;28;20028;-75
2022/03/18 12:48:25;;;;;;;8.10;2.90;;;10.20;99.90;;;;;;5096461;28;20111;-75
2022/03/18 12:50:58;;;;;;;6.55;2.05;;;10.30;99.90;;;;;;5098300;28;20020;-75
2022/03/18 12:53:33;;;;;;;8.80;2.38;;;10.40;99.90;;;;;;5097578;28;20416;-75
2022/03/18 12:56:03;;;;;;;11.07;2.35;;;10.50;99.90;;;;;;5098289;28;20024;-75
2022/03/18 12:58:40;;;;;;;10.23;3.65;;;10.50;99.90;;;;;;5098306;28;20097;-75
2022/03/18 13:01:11;;;;;;;6.57;1.83;;;10.60;99.90;;;;;;5098687;28;20290;-75
2022/03/18 13:03:48;;;;;;;9.13;2.38;;;10.70;99.90;;;;;;5098441;28;20025;-75
2022/03/18 13:06:22;;;;;;;8.60;2.45;;;10.80;99.90;;;;;;5098490;28;20289;-75
2022/03/18 13:08:54;;;;;;;4.75;1.80;;;10.80;99.90;;;;;;5098036;28;20028;-74
2022/03/18 13:11:30;;;;;;;9.52;2.20;;;10.90;99.90;;;;;;5098317;28;20119;-75
2022/03/18 13:13:57;;;;;;;12.30;2.90;;;11.00;99.90;;;;;;5097664;28;20024;-72
2022/03/18 13:16:38;;;;;;;6.63;1.67;;;11.10;99.90;;;;;;5097066;28;20105;-72
2022/03/18 13:19:07;;;;;;;8.50;1.98;;;11.10;99.90;;;;;;5096950;28;20027;-72
2022/03/18 13:21:47;;;;;;;9.07;2.10;;;11.20;99.90;;;;;;5094437;28;20420;-73
2022/03/18 13:24:15;;;;;;;4.65;1.70;;;11.30;99.90;;;;;;5058849;28;20085;-74
2022/03/18 13:26:45;;;;;;;7.00;1.75;;;11.50;99.90;;;;;;5076988;28;20035;-74
2022/03/18 13:29:12;;;;;;;12.13;2.45;;;11.60;99.90;;;;;;5076568;28;20031;-74
2022/03/18 13:34:33;;;;;;;7.80;2.50;;;11.80;99.90;;;;;;5076494;28;20043;-74
2022/03/18 13:37:16;;;;;;;6.97;1.88;;;12.00;99.90;;;;;;5077375;28;20342;-75
2022/03/18 13:39:51;;;;;;;11.38;2.25;;;12.20;99.90;;;;;;5077315;28;20080;-74
2022/03/18 13:42:24;;;;;;;10.95;2.55;;;12.30;99.90;;;;;;5077794;28;20286;-73
2022/03/18 13:44:51;;;;;;;9.15;2.38;;;12.50;99.90;;;;;;5077303;28;20021;-74
2022/03/18 13:47:18;;;;;;;8.75;2.47;;;12.70;99.90;;;;;;5077495;28;20020;-74
2022/03/18 13:49:57;;;;;;;7.70;2.10;;;13.00;99.90;;;;;;5060160;28;20114;-74
2022/03/18 13:52:32;;;;;;;6.45;2.20;;;13.40;99.90;;;;;;5077413;28;20056;-74
2022/03/18 13:55:00;;;;;;;4.30;1.85;;;14.00;99.90;;;;;;5077063;28;20024;-74
2022/03/18 13:57:28;;;;;;;5.97;2.10;;;14.60;99.90;;;;;;5076352;28;20035;-74
2022/03/18 14:00:01;;;;;;;8.88;2.35;;;15.50;98.80;;;;;;5076815;28;20033;-74
2022/03/18 14:02:29;;;;;;;7.18;2.00;;;16.40;94.90;;;;;;5076541;28;20025;-74
2022/03/18 14:04:59;;;;;;;8.75;2.63;;;17.30;92.30;;;;;;5076320;28;20020;-74
2022/03/18 14:07:47;;;;;;;5.47;2.20;;;18.10;87.90;;;;;;5076482;28;20024;-74
2022/03/18 14:10:19;;;;;;;7.95;2.80;;;18.90;79.30;;;;;;5058392;28;20451;-74
2022/03/18 14:13:14;;;;;;;6.10;2.40;;;19.60;76.10;;;;;;5076724;28;20080;-74
2022/03/18 14:15:50;;;;;;;5.68;2.85;;;20.20;70.80;;;;;;5076545;28;20124;-74